createdAt,value
2022-08-04T00:02:14.121Z,101205.31
2022-08-04T00:04:47.291Z,101200.91
2022-08-04T00:07:44.183Z,101193.94
2022-08-04T00:10:11.909Z,101197.75
2022-08-04T00:12:54.934Z,101195.78
2022-08-04T00:15:23.362Z,101187.28
2022-08-04T00:17:54.898Z,101185.78
2022-08-04T00:20:23.353Z,101183.69
2022-08-04T00:22:53.946Z,101183.63
2022-08-04T00:25:22.488Z,101183.81
2022-08-04T00:27:50.919Z,101187.34
2022-08-04T00:30:19.019Z,101184.66
2022-08-04T00:32:47.423Z,101181.22
2022-08-04T00:35:16.520Z,101171.78
2022-08-04T00:37:45.953Z,101187.56
2022-08-04T00:40:26.848Z,101171.00
2022-08-04T00:43:08.213Z,101173.41
2022-08-04T00:46:15.017Z,101160.59
2022-08-04T00:48:57.242Z,101167.88
2022-08-04T00:51:31.996Z,101165.94
2022-08-04T00:54:09.408Z,101175.56
2022-08-04T00:56:57.231Z,101171.88
2022-08-04T00:59:34.442Z,101169.94
2022-08-04T01:02:08.246Z,101162.38
2022-08-04T01:04:50.008Z,101168.09
2022-08-04T01:07:36.126Z,101169.88
2022-08-04T01:10:07.875Z,101164.09
2022-08-04T01:12:53.416Z,101155.88
2022-08-04T01:15:26.407Z,101157.97
2022-08-04T01:18:06.399Z,101155.09
2022-08-04T01:20:36.312Z,101154.88
2022-08-04T01:23:30.049Z,101146.66
2022-08-04T01:26:43.610Z,101146.59
2022-08-04T01:29:12.422Z,101147.66
2022-08-04T01:32:03.759Z,101144.44
2022-08-04T01:34:36.296Z,101138.94
2022-08-04T01:37:10.304Z,101131.34
2022-08-04T01:39:46.365Z,101135.47
2022-08-04T01:42:32.010Z,101141.69
2022-08-04T01:45:02.723Z,101131.50
2022-08-04T01:47:31.898Z,101129.50
2022-08-04T01:50:06.342Z,101124.97
2022-08-04T01:52:36.235Z,101137.84
2022-08-04T01:55:07.242Z,101133.91
2022-08-04T01:57:38.270Z,101134.94
2022-08-04T02:00:10.400Z,101130.16
2022-08-04T02:02:38.573Z,101130.97
2022-08-04T02:05:07.119Z,101123.72
2022-08-04T02:07:44.328Z,101125.66
2022-08-04T02:10:24.505Z,101125.06
2022-08-04T02:12:59.274Z,101130.22
2022-08-04T02:15:32.045Z,101118.16
2022-08-04T02:18:05.184Z,101106.56
2022-08-04T02:20:36.576Z,101115.59
2022-08-04T02:23:11.310Z,101114.56
2022-08-04T02:25:42.375Z,101109.75
2022-08-04T02:28:19.342Z,101107.19
2022-08-04T02:30:56.308Z,101109.31
2022-08-04T02:33:28.312Z,101109.75
2022-08-04T02:36:02.357Z,101110.09
2022-08-04T02:38:42.260Z,101109.47
2022-08-04T02:41:10.857Z,101106.38
2022-08-04T02:43:51.619Z,101114.19
2022-08-04T02:46:23.098Z,101109.31
2022-08-04T02:48:53.102Z,101100.03
2022-08-04T02:51:24.307Z,101101.59
2022-08-04T02:53:55.713Z,101103.31
2022-08-04T02:56:25.181Z,101096.03
2022-08-04T02:58:54.883Z,101098.53
2022-08-04T03:01:25.152Z,101094.38
2022-08-04T03:04:00.264Z,101091.81
2022-08-04T03:07:00.588Z,101093.84
2022-08-04T03:10:01.499Z,101090.53
2022-08-04T03:13:04.342Z,101085.19
2022-08-04T03:16:09.398Z,101084.88
2022-08-04T03:19:18.857Z,101074.72
2022-08-04T03:22:20.097Z,101086.72
2022-08-04T03:25:25.135Z,101088.53
2022-08-04T03:28:28.756Z,101083.88
2022-08-04T03:31:37.135Z,101092.09
2022-08-04T03:34:16.740Z,101085.13
2022-08-04T03:37:11.839Z,101083.78
2022-08-04T03:40:18.978Z,101079.19
2022-08-04T03:43:58.807Z,101077.31
2022-08-04T03:46:48.410Z,101073.00
2022-08-04T03:49:43.898Z,101079.47
2022-08-04T03:52:47.225Z,101084.69
2022-08-04T03:55:51.569Z,101079.47
2022-08-04T03:58:54.941Z,101079.81
2022-08-04T04:02:01.291Z,101076.22
2022-08-04T04:05:01.192Z,101080.31
2022-08-04T04:08:19.051Z,101073.38
2022-08-04T04:11:29.404Z,101067.47
2022-08-04T04:14:13.037Z,101077.66
2022-08-04T04:16:55.427Z,101064.81
2022-08-04T04:19:58.676Z,101066.63
2022-08-04T04:22:47.879Z,101061.84
2022-08-04T04:25:30.486Z,101071.41
2022-08-04T04:28:44.599Z,101065.50
2022-08-04T04:31:28.366Z,101072.00
2022-08-04T04:34:03.153Z,101059.63
2022-08-04T04:36:41.576Z,101063.22
2022-08-04T04:39:15.925Z,101067.22
2022-08-04T04:41:55.123Z,101065.53
2022-08-04T04:44:57.058Z,101060.25
2022-08-04T04:48:03.537Z,101054.09
2022-08-04T04:50:30.081Z,101056.44
2022-08-04T04:53:11.250Z,101048.47
2022-08-04T04:55:48.112Z,101058.78
2022-08-04T04:58:18.807Z,101050.97
2022-08-04T05:00:59.096Z,101049.81
2022-08-04T05:03:50.380Z,101053.72
2022-08-04T05:06:28.211Z,101055.34
2022-08-04T05:09:09.212Z,101061.19
2022-08-04T05:12:02.395Z,101052.72
2022-08-04T05:14:41.004Z,101064.28
2022-08-04T05:17:17.102Z,101061.84
2022-08-04T05:19:53.550Z,101045.97
2022-08-04T05:22:25.778Z,101043.69
2022-08-04T05:25:00.450Z,101048.22
2022-08-04T05:27:32.940Z,101045.53
2022-08-04T05:30:06.110Z,101053.50
2022-08-04T05:32:42.781Z,101041.53
2022-08-04T05:35:16.808Z,101045.84
2022-08-04T05:38:07.658Z,101042.53
2022-08-04T05:40:39.769Z,101037.63
2022-08-04T05:43:08.356Z,101038.13
2022-08-04T05:45:38.995Z,101039.19
2022-08-04T05:48:09.707Z,101037.50
2022-08-04T05:50:38.113Z,101028.41
2022-08-04T05:53:07.291Z,101031.44
2022-08-04T05:55:58.382Z,101033.56
2022-08-04T05:58:25.135Z,101029.34
2022-08-04T06:00:54.168Z,101037.00
2022-08-04T06:03:22.917Z,101034.47
2022-08-04T06:05:51.737Z,101039.00
2022-08-04T06:08:19.953Z,101025.41
2022-08-04T06:10:49.729Z,101024.75
2022-08-04T06:13:47.602Z,101030.47
2022-08-04T06:16:29.075Z,101019.63
2022-08-04T06:20:02.307Z,101008.31
2022-08-04T06:21:51.875Z,101013.44
2022-08-04T06:24:22.170Z,101013.00
2022-08-04T06:26:52.055Z,101015.34
2022-08-04T06:29:25.543Z,101004.66
2022-08-04T06:32:27.157Z,101010.78
2022-08-04T06:34:48.023Z,101015.38
2022-08-04T06:37:41.222Z,101014.09
2022-08-04T06:40:29.822Z,101016.25
2022-08-04T06:42:57.520Z,101014.41
2022-08-04T06:45:26.437Z,100998.69
2022-08-04T06:47:55.036Z,101008.41
2022-08-04T06:51:25.335Z,101014.91
2022-08-04T06:53:12.102Z,101001.56
2022-08-04T06:55:42.465Z,101003.22
2022-08-04T06:58:12.503Z,101001.75
2022-08-04T07:00:42.204Z,100996.28
2022-08-04T07:03:12.477Z,100995.41
2022-08-04T07:05:41.707Z,101003.47
2022-08-04T07:08:11.848Z,100995.81
2022-08-04T07:10:40.633Z,101004.81
2022-08-04T07:13:09.604Z,101001.72
2022-08-04T07:15:41.131Z,100996.91
2022-08-04T07:18:09.222Z,101007.41
2022-08-04T07:20:37.324Z,101003.84
2022-08-04T07:23:05.734Z,101001.50
2022-08-04T07:25:59.651Z,101003.94
2022-08-04T07:28:25.248Z,100998.31
2022-08-04T07:30:55.547Z,101000.78
2022-08-04T07:33:27.631Z,100995.72
2022-08-04T07:36:04.975Z,100992.94
2022-08-04T07:38:48.816Z,100999.75
2022-08-04T07:41:40.633Z,100994.53
2022-08-04T07:44:09.789Z,100995.28
2022-08-04T07:46:39.285Z,100995.53
2022-08-04T07:49:07.633Z,100996.47
2022-08-04T07:51:37.314Z,100991.25
2022-08-04T07:54:07.723Z,100993.66
2022-08-04T07:56:37.455Z,100992.78
2022-08-04T07:59:06.293Z,100984.47
2022-08-04T08:01:34.604Z,100985.75
2022-08-04T08:04:06.792Z,100981.66
2022-08-04T08:06:42.732Z,100982.38
2022-08-04T08:09:14.522Z,100979.63
2022-08-04T08:12:37.957Z,100976.59
2022-08-04T08:14:31.910Z,100967.00
2022-08-04T08:17:01.628Z,100972.63
2022-08-04T08:19:31.230Z,100970.56
2022-08-04T08:22:00.894Z,100970.91
2022-08-04T08:24:29.930Z,100964.06
2022-08-04T08:26:58.274Z,100970.47
2022-08-04T08:29:27.440Z,100962.19
2022-08-04T08:32:01.504Z,100963.72
2022-08-04T08:34:32.668Z,100961.66
2022-08-04T08:37:06.376Z,100956.06
2022-08-04T08:39:39.618Z,100959.91
2022-08-04T08:42:48.928Z,100960.53
2022-08-04T08:45:31.430Z,100950.84
2022-08-04T08:48:17.867Z,100953.03
2022-08-04T08:51:24.986Z,100944.78
2022-08-04T08:54:00.998Z,100938.28
2022-08-04T08:56:35.298Z,100938.97
2022-08-04T08:59:27.015Z,100936.41
2022-08-04T09:02:16.182Z,100933.56
2022-08-04T09:05:07.672Z,100933.69
2022-08-04T09:08:03.412Z,100927.53
2022-08-04T09:10:37.756Z,100936.06
2022-08-04T09:13:12.277Z,100936.63
2022-08-04T09:15:54.372Z,100933.63
2022-08-04T09:18:27.316Z,100926.53
2022-08-04T09:21:00.714Z,100915.81
2022-08-04T09:23:45.257Z,100919.31
2022-08-04T09:26:20.543Z,100921.63
2022-08-04T09:28:55.146Z,100922.59
2022-08-04T09:31:26.213Z,100922.00
2022-08-04T09:34:01.647Z,100907.22
2022-08-04T09:36:34.992Z,100918.50
2022-08-04T09:39:13.484Z,100915.41
2022-08-04T09:41:52.550Z,100913.94
2022-08-04T09:44:48.776Z,100916.19
2022-08-04T09:47:22.099Z,100921.59
2022-08-04T09:49:57.008Z,100921.06
2022-08-04T09:52:29.982Z,100912.31
2022-08-04T09:55:07.040Z,100903.34
2022-08-04T09:57:46.498Z,100908.69
2022-08-04T10:00:17.190Z,100914.72
2022-08-04T10:02:49.640Z,100904.63
2022-08-04T10:05:21.910Z,100902.41
2022-08-04T10:08:15.221Z,100903.94
2022-08-04T10:10:53.595Z,100897.56
2022-08-04T10:13:28.510Z,100896.53
2022-08-04T10:16:17.186Z,100905.66
2022-08-04T10:18:54.709Z,100894.16
2022-08-04T10:21:31.623Z,100895.22
2022-08-04T10:24:28.409Z,100886.28
2022-08-04T10:27:02.721Z,100883.84
2022-08-04T10:29:40.089Z,100881.84
2022-08-04T10:32:12.812Z,100875.41
2022-08-04T10:34:44.489Z,100880.72
2022-08-04T10:37:21.182Z,100877.66
2022-08-04T10:40:17.912Z,100885.22
2022-08-04T10:43:00.174Z,100874.56
2022-08-04T10:45:35.393Z,100875.38
2022-08-04T10:48:10.763Z,100870.84
2022-08-04T10:50:46.603Z,100853.78
2022-08-04T10:53:19.401Z,100863.63
2022-08-04T10:56:07.260Z,100854.28
2022-08-04T10:58:47.698Z,100865.19
2022-08-04T11:02:01.087Z,100851.09
2022-08-04T11:04:26.761Z,100847.06
2022-08-04T11:07:00.849Z,100849.16
2022-08-04T11:09:30.207Z,100858.25
2022-08-04T11:12:02.526Z,100852.34
2022-08-04T11:14:36.551Z,100852.31
2022-08-04T11:17:08.191Z,100859.63
2022-08-04T11:19:45.079Z,100856.44
2022-08-04T11:22:18.781Z,100854.03
2022-08-04T11:24:52.011Z,100851.16
2022-08-04T11:27:27.415Z,100853.91
2022-08-04T11:30:05.134Z,100850.31
2022-08-04T11:32:39.100Z,100851.19
2022-08-04T11:35:16.381Z,100851.31
2022-08-04T11:37:47.977Z,100848.66
2022-08-04T11:40:22.746Z,100838.94
2022-08-04T11:42:55.076Z,100843.28
2022-08-04T11:45:32.421Z,100842.69
2022-08-04T11:48:07.411Z,100841.66
2022-08-04T11:50:42.253Z,100852.75
2022-08-04T11:53:15.693Z,100841.59
2022-08-04T11:56:07.749Z,100840.19
2022-08-04T11:58:38.420Z,100841.91
2022-08-04T12:01:21.721Z,100840.50
2022-08-04T12:04:04.555Z,100843.69
2022-08-04T12:07:04.694Z,100837.16
2022-08-04T12:09:45.935Z,100850.22
2022-08-04T12:12:21.495Z,100840.78
2022-08-04T12:14:54.445Z,100834.94
2022-08-04T12:17:33.644Z,100842.78
2022-08-04T12:20:40.817Z,100830.59
2022-08-04T12:23:11.408Z,100837.22
2022-08-04T12:25:45.154Z,100824.22
2022-08-04T12:28:18.759Z,100833.88
2022-08-04T12:30:59.111Z,100836.59
2022-08-04T12:33:41.364Z,100820.25
2022-08-04T12:36:33.338Z,100829.28
2022-08-04T12:39:06.550Z,100817.75
2022-08-04T12:41:40.208Z,100811.28
2022-08-04T12:44:33.382Z,100811.84
2022-08-04T12:47:26.403Z,100806.09
2022-08-04T12:50:00.130Z,100803.16
2022-08-04T12:55:19.735Z,100797.22
2022-08-04T12:57:48.546Z,100792.06
2022-08-04T13:00:31.251Z,100807.25
2022-08-04T13:03:09.849Z,100797.78
2022-08-04T13:05:43.121Z,100787.97
2022-08-04T13:08:16.472Z,100781.66
2022-08-04T13:10:47.939Z,100801.41
2022-08-04T13:13:18.912Z,100788.19
2022-08-04T13:16:00.333Z,100795.31
2022-08-04T13:21:23.116Z,100785.97
2022-08-04T13:24:22.665Z,100788.84
2022-08-04T13:27:03.571Z,100774.72
2022-08-04T13:29:59.769Z,100768.94
2022-08-04T13:30:24.088Z,100794.13
2022-08-04T13:32:25.997Z,100783.09
2022-08-04T13:34:55.868Z,100776.78
2022-08-04T13:37:28.241Z,100778.50
2022-08-04T13:39:57.143Z,100772.78
2022-08-04T13:42:27.274Z,100782.06
2022-08-04T13:44:57.959Z,100780.00
2022-08-04T13:47:32.153Z,100771.78
2022-08-04T13:50:19.641Z,100760.78
2022-08-04T13:52:53.795Z,100755.72
2022-08-04T13:55:24.994Z,100757.06
2022-08-04T13:57:57.398Z,100759.03
2022-08-04T14:00:30.090Z,100754.03
2022-08-04T14:03:23.211Z,100751.28
2022-08-04T14:06:14.432Z,100751.50
2022-08-04T14:08:51.081Z,100744.38
2022-08-04T14:12:09.445Z,100726.16
2022-08-04T14:14:19.879Z,100750.13
2022-08-04T14:17:01.671Z,100767.13
2022-08-04T14:19:45.974Z,100777.63
2022-08-04T14:22:29.531Z,100787.34
2022-08-04T14:25:01.890Z,100792.81
2022-08-04T14:27:30.540Z,100789.69
2022-08-04T14:30:01.353Z,100796.63
2022-08-04T14:32:29.527Z,100794.22
2022-08-04T14:34:57.819Z,100808.72
2022-08-04T14:37:25.956Z,100807.66
2022-08-04T14:40:07.846Z,100810.19
2022-08-04T14:42:54.901Z,100813.06
2022-08-04T14:45:34.469Z,100828.41
2022-08-04T14:48:03.714Z,100848.09
2022-08-04T14:50:37.491Z,100855.66
2022-08-04T14:53:08.530Z,100874.56
2022-08-04T14:55:37.688Z,100878.59
2022-08-04T14:58:36.578Z,100900.75
2022-08-04T15:00:59.063Z,100904.19
2022-08-04T15:03:28.235Z,100912.66
2022-08-04T15:06:05.467Z,100913.66
2022-08-04T15:08:36.502Z,100915.81
2022-08-04T15:11:04.798Z,100905.41
2022-08-04T15:13:35.061Z,100902.44
2022-08-04T15:16:08.493Z,100915.34
2022-08-04T15:18:44.179Z,100934.84
2022-08-04T15:21:19.800Z,100945.72
2022-08-04T15:23:47.991Z,100958.94
2022-08-04T15:26:21.495Z,100947.31
2022-08-04T15:28:53.783Z,100961.00
2022-08-04T15:32:05.471Z,100967.66
2022-08-04T15:34:14.911Z,100951.44
2022-08-04T15:36:58.438Z,100985.22
2022-08-04T15:39:35.995Z,100992.50
2022-08-04T15:42:20.564Z,101024.06
2022-08-04T15:45:22.438Z,101011.72
2022-08-04T15:48:34.885Z,100973.44
2022-08-04T15:51:14.464Z,100967.66
2022-08-04T15:54:23.382Z,101007.88
2022-08-04T15:57:01.357Z,101045.16
2022-08-04T16:00:15.255Z,101052.78
2022-08-04T16:02:45.163Z,101060.91
2022-08-04T16:05:40.394Z,101068.84
2022-08-04T16:08:16.032Z,101080.72
2022-08-04T16:10:49.123Z,101089.28
2022-08-04T16:13:19.889Z,101087.38
2022-08-04T16:15:55.534Z,101083.13
2022-08-04T16:18:41.038Z,101080.25
2022-08-04T16:21:19.932Z,101072.16
2022-08-04T16:24:11.255Z,101063.22
2022-08-04T16:26:55.101Z,101052.34
2022-08-04T16:29:39.030Z,101045.94
2022-08-04T16:32:21.199Z,101042.41
2022-08-04T16:34:56.487Z,101029.38
2022-08-04T16:37:28.254Z,101021.03
2022-08-04T16:40:37.435Z,101003.22
2022-08-04T16:43:09.633Z,100980.03
2022-08-04T16:45:42.520Z,100979.91
2022-08-04T16:48:11.484Z,100979.44
2022-08-04T16:51:04.837Z,100972.66
2022-08-04T16:53:52.115Z,100949.47
2022-08-04T16:56:30.356Z,100940.34
2022-08-04T16:59:08.550Z,100922.50
2022-08-04T17:01:36.766Z,100914.66
2022-08-04T17:04:08.124Z,100916.63
2022-08-04T17:06:43.210Z,100910.81
2022-08-04T17:09:13.615Z,100897.75
2022-08-04T17:11:42.462Z,100907.19
2022-08-04T17:14:10.907Z,100904.00
2022-08-04T17:16:41.077Z,100906.41
2022-08-04T17:19:25.113Z,100918.78
2022-08-04T17:22:02.187Z,100917.91
2022-08-04T17:24:31.905Z,100923.47
2022-08-04T17:27:00.163Z,100918.88
2022-08-04T17:29:42.982Z,100927.22
2022-08-04T17:32:15.955Z,100939.88
2022-08-04T17:34:48.677Z,100940.16
2022-08-04T17:37:39.102Z,100946.03
2022-08-04T17:40:13.156Z,100944.69
2022-08-04T17:42:45.018Z,100943.06
2022-08-04T17:51:16.818Z,100953.50
2022-08-04T17:54:02.656Z,100958.28
2022-08-04T17:56:36.422Z,100948.34
2022-08-04T17:59:48.255Z,100967.06
2022-08-04T18:02:11.356Z,100958.88
2022-08-04T18:05:05.916Z,100964.94
2022-08-04T18:08:40.590Z,100964.41
2022-08-04T18:10:39.714Z,100968.03
2022-08-04T18:13:23.071Z,100974.31
2022-08-04T18:15:52.025Z,100971.56
2022-08-04T18:18:23.569Z,100984.94
2022-08-04T18:20:51.977Z,100980.41
2022-08-04T18:23:20.237Z,100982.31
2022-08-04T18:26:03.510Z,100978.38
2022-08-04T18:28:33.454Z,100976.78
2022-08-04T18:31:02.438Z,100968.13
2022-08-04T18:33:39.442Z,100978.41
2022-08-04T18:36:32.464Z,100985.59
2022-08-04T18:38:59.314Z,100994.44
2022-08-04T18:42:01.298Z,101006.31
2022-08-04T18:44:31.624Z,101008.34
2022-08-04T18:47:19.631Z,101014.28
2022-08-04T18:50:58.737Z,101013.00
2022-08-04T18:52:36.441Z,101015.69
2022-08-04T18:55:56.457Z,101018.47
2022-08-04T18:58:07.059Z,101019.50
2022-08-04T19:00:45.737Z,101028.19
2022-08-04T19:03:16.500Z,101040.50
2022-08-04T19:05:59.761Z,101034.78
2022-08-04T19:08:35.022Z,101042.06
2022-08-04T19:11:37.335Z,101041.88
2022-08-04T19:13:58.629Z,101045.22
2022-08-04T19:19:18.031Z,101060.69
2022-08-04T19:22:01.155Z,101061.34
2022-08-04T19:24:35.042Z,101059.19
2022-08-04T19:27:07.516Z,101071.34
2022-08-04T19:29:41.131Z,101084.22
2022-08-04T19:32:14.448Z,101091.75
2022-08-04T19:34:46.260Z,101101.50
2022-08-04T19:37:57.780Z,101106.25
2022-08-04T19:40:04.737Z,101102.59
2022-08-04T19:42:33.031Z,101119.22
2022-08-04T19:45:02.641Z,101130.91
2022-08-04T19:50:18.815Z,101134.50
2022-08-04T19:55:38.343Z,101126.25
2022-08-04T19:58:10.142Z,101121.34
2022-08-04T20:00:50.914Z,101129.63
2022-08-04T20:06:08.063Z,101130.94
2022-08-04T20:08:37.029Z,101125.34
2022-08-04T20:11:08.191Z,101128.22
2022-08-04T20:13:40.119Z,101135.09
2022-08-04T20:16:28.329Z,101148.66
2022-08-04T20:19:02.821Z,101129.50
2022-08-04T20:21:53.478Z,101128.97
2022-08-04T20:24:40.244Z,101130.56
2022-08-04T20:27:11.805Z,101128.53
2022-08-04T20:29:48.587Z,101124.34
2022-08-04T20:32:20.132Z,101126.50
2022-08-04T20:34:51.554Z,101142.13
2022-08-04T20:40:11.076Z,101169.84
2022-08-04T20:42:40.380Z,101157.81
2022-08-04T20:45:16.514Z,101160.31
2022-08-04T20:47:54.044Z,101160.13
2022-08-04T20:50:30.066Z,101158.16
2022-08-04T20:52:58.773Z,101160.66
2022-08-04T20:55:29.498Z,101169.56
2022-08-04T20:58:03.107Z,101167.78
2022-08-04T21:00:32.152Z,101155.84
2022-08-04T21:03:01.698Z,101157.59
2022-08-04T21:05:31.542Z,101165.81
2022-08-04T21:08:00.089Z,101162.41
2022-08-04T21:10:28.463Z,101171.16
2022-08-04T21:12:56.587Z,101158.13
2022-08-04T21:15:50.713Z,101160.69
2022-08-04T21:18:16.866Z,101158.50
2022-08-04T21:20:45.432Z,101152.81
2022-08-04T21:23:16.513Z,101149.69
2022-08-04T21:25:45.689Z,101147.22
2022-08-04T21:28:20.031Z,101131.50
2022-08-04T21:30:54.592Z,101131.88
2022-08-04T21:33:49.896Z,101138.56
2022-08-04T21:36:16.140Z,101149.41
2022-08-04T21:38:51.134Z,101144.00
2022-08-04T21:41:25.110Z,101134.00
2022-08-04T21:43:55.870Z,101142.84
2022-08-04T21:46:24.054Z,101146.66
2022-08-04T21:48:53.486Z,101149.03
2022-08-04T21:51:57.824Z,101152.78
2022-08-04T21:54:15.128Z,101158.91
2022-08-04T21:56:51.385Z,101147.13
2022-08-04T21:59:23.567Z,101155.88
2022-08-04T22:01:56.670Z,101163.25
2022-08-04T22:04:26.117Z,101168.44
2022-08-04T22:06:54.159Z,101156.03
2022-08-04T22:09:22.440Z,101151.25
2022-08-04T22:11:52.114Z,101158.69
2022-08-04T22:14:27.264Z,101154.72
2022-08-04T22:16:57.760Z,101152.44
2022-08-04T22:19:50.180Z,101152.63
2022-08-04T22:22:25.425Z,101166.28
2022-08-04T22:24:58.339Z,101160.34
2022-08-04T22:27:44.025Z,101155.97
2022-08-04T22:30:17.610Z,101154.22
2022-08-04T22:32:47.006Z,101165.94
2022-08-04T22:35:36.395Z,101160.50
2022-08-04T22:38:25.387Z,101159.28
2022-08-04T22:40:58.136Z,101159.38
2022-08-04T22:43:32.091Z,101160.13
2022-08-04T22:46:03.904Z,101153.31
2022-08-04T22:48:33.784Z,101158.41
2022-08-04T22:51:03.576Z,101163.25
2022-08-04T22:53:31.624Z,101171.59
2022-08-04T22:56:10.225Z,101178.97
2022-08-04T22:58:45.922Z,101182.84
2022-08-04T23:01:19.745Z,101177.06
2022-08-04T23:03:55.876Z,101173.91
2022-08-04T23:06:28.531Z,101170.53
2022-08-04T23:08:57.016Z,101177.97
2022-08-04T23:11:35.297Z,101183.81
2022-08-04T23:14:05.782Z,101176.44
2022-08-04T23:16:40.630Z,101191.03
2022-08-04T23:19:15.178Z,101189.00
2022-08-04T23:21:47.325Z,101180.63
2022-08-04T23:24:16.037Z,101179.41
2022-08-04T23:26:44.125Z,101184.22
2022-08-04T23:29:12.611Z,101179.66
2022-08-04T23:31:59.138Z,101172.66
2022-08-04T23:34:29.124Z,101172.28
2022-08-04T23:37:00.395Z,101186.38
2022-08-04T23:40:03.460Z,101193.84
2022-08-04T23:42:21.209Z,101198.28
2022-08-04T23:44:49.677Z,101198.69
2022-08-04T23:48:14.491Z,101206.47
2022-08-04T23:50:06.298Z,101209.56
2022-08-04T23:52:35.697Z,101211.41
2022-08-04T23:55:03.715Z,101207.78
2022-08-04T23:58:16.851Z,101213.13
